»·PEaware :: N577SQ 7S9-4S2

N577SQ :: 7S9-4S2

FLIGHT INFORMATION

Flight Status: Arrived
Operator: Privately registered:
United States
More flights under this callsign
Pilot: Paul T. (5885)
Aircraft: PIPER PA-28 CHEROKEE ARCHER
(PA28)
More flights by this aircraft type
Origin: 7S9 Lenhardt
United States
Destination: 4S2 Hood River
United States
More flights between these airports :: More routes between these airports
Route: CZK
File this flight plan on PilotEdge
Remarks:
Altitude:
(Current/Filed)
7,500ft
Speed:
(Current/Filed)
110kts
Departed: 31-Mar-17 09:44 AM
Arrived: 31-Mar-17 10:34 AM
Distance/Time
Traveled:
59nm/0:49
Distance/Time
To Go:
Arrived

Flight Plot

Page will automatically refresh every two minutes.

Flight plan parsing failed; only flown route is shown


Map Options




Map Legend


Flown Route
Filed Route
Departure Airport
Arrival Airport
Navaid (VOR, NDB)
Fix

Horizontal Profiles

Position Reports

Time Latitude Longitude Heading Altitude Ground
Speed
31-Mar-17 09:39 45.180495 -122.744928 227 159ft 0kts
31-Mar-17 09:40 45.180495 -122.744928 227 159ft 0kts
31-Mar-17 09:41 45.180495 -122.744928 227 159ft 0kts
31-Mar-17 09:42 45.180442 -122.745006 222 159ft 3kts
31-Mar-17 09:43 45.178948 -122.746702 220 160ft 0kts
31-Mar-17 09:44 45.178642 -122.746945 169 162ft 7kts
31-Mar-17 09:45 45.189340 -122.731603 60 835ft 93kts
31-Mar-17 09:46 45.199821 -122.702012 46 1571ft 105kts
31-Mar-17 09:47 45.213764 -122.677966 58 2107ft 86kts
31-Mar-17 09:48 45.224986 -122.651462 64 2628ft 106kts
31-Mar-17 09:49 45.237853 -122.620624 46 2552ft 110kts
31-Mar-17 09:50 45.255966 -122.599450 26 2405ft 110kts
31-Mar-17 09:51 45.272899 -122.576025 57 2446ft 104kts
31-Mar-17 09:52 45.285087 -122.548471 64 2487ft 103kts
31-Mar-17 09:53 45.297126 -122.519754 53 2510ft 105kts
31-Mar-17 09:54 45.310991 -122.491907 54 2522ft 105kts
31-Mar-17 09:55 45.328680 -122.470804 22 2521ft 107kts
31-Mar-17 09:56 45.344244 -122.458577 19 2668ft 95kts
31-Mar-17 09:57 45.362081 -122.468852 332 2626ft 95kts
31-Mar-17 09:58 45.377754 -122.444944 77 2566ft 105kts
31-Mar-17 09:59 45.384243 -122.418258 66 2522ft 106kts
31-Mar-17 10:00 45.394691 -122.386460 61 2459ft 107kts
31-Mar-17 10:01 45.406930 -122.349407 70 2407ft 105kts
31-Mar-17 10:02 45.411764 -122.333424 67 2436ft 103kts
31-Mar-17 10:03 45.421079 -122.296893 71 2390ft 105kts
31-Mar-17 10:04 45.435458 -122.279865 24 2315ft 105kts
31-Mar-17 10:05 45.455495 -122.276281 12 2455ft 94kts
31-Mar-17 10:06 45.475903 -122.265089 27 2398ft 105kts
31-Mar-17 10:07 45.497318 -122.251653 18 2470ft 102kts
31-Mar-17 10:08 45.520755 -122.240764 18 2427ft 106kts
31-Mar-17 10:09 45.535258 -122.229603 47 2424ft 105kts
31-Mar-17 10:10 45.551717 -122.210095 42 2419ft 103kts
31-Mar-17 10:11 45.565622 -122.185741 55 2434ft 108kts
31-Mar-17 10:12 45.577764 -122.155301 62 2457ft 103kts
31-Mar-17 10:13 45.587460 -122.123209 73 2454ft 105kts
31-Mar-17 10:14 45.594740 -122.090670 66 2481ft 103kts
31-Mar-17 10:15 45.604858 -122.056828 67 2345ft 106kts
31-Mar-17 10:16 45.616031 -122.024841 61 2302ft 106kts
31-Mar-17 10:17 45.627955 -121.999179 47 2325ft 103kts
31-Mar-17 10:18 45.636631 -121.972226 70 2217ft 114kts
31-Mar-17 10:19 45.644684 -121.943418 43 2296ft 100kts
31-Mar-17 10:20 45.657822 -121.920859 50 2332ft 103kts
31-Mar-17 10:21 45.671706 -121.895992 49 2116ft 111kts
31-Mar-17 10:22 45.683766 -121.867291 48 1830ft 109kts
31-Mar-17 10:23 45.693604 -121.839008 64 1856ft 106kts
31-Mar-17 10:24 45.694679 -121.807367 91 1864ft 112kts
31-Mar-17 10:25 45.692118 -121.774311 93 1887ft 110kts
31-Mar-17 10:26 45.690130 -121.741172 86 1888ft 111kts
31-Mar-17 10:27 45.693055 -121.708153 71 1879ft 109kts
31-Mar-17 10:28 45.699012 -121.679286 67 1855ft 111kts
31-Mar-17 10:29 45.704220 -121.649120 75 1862ft 110kts
31-Mar-17 10:30 45.704049 -121.615840 97 1835ft 116kts
31-Mar-17 10:31 45.691806 -121.583231 102 1659ft 123kts
31-Mar-17 10:32 45.689789 -121.550390 85 1600ft 102kts
31-Mar-17 10:33 45.687635 -121.523142 94 1535ft 86kts
31-Mar-17 10:34 45.672708 -121.517439 253 880ft 76kts
31-Mar-17 10:35 45.672785 -121.535445 274 608ft 32kts
31-Mar-17 10:36 45.671995 -121.539090 352 623ft 0kts

Navigation Log

Ident Type
Flight plan parsing failed, navigation log unavailable